This is the latest recevied weather packets stored in our database for station/object OE-11099. If no packets are shown the sender has not sent any weather packets the latest 10 day(s).
| Time | Temp. | Humidity | Pressure | Rain* | Wind** | Luminosity | Snow |
|---|---|---|---|---|---|---|---|
| 1788036906 | 17.78° C | 79% | 1017 hPa | 0 mm | - | 0 W/m² | - |
| 1788036079 | 17.78° C | 79% | 1017 hPa | 0 mm | - | 0 W/m² | - |
| 1788035705 | 17.78° C | 80% | 1017 hPa | 0 mm | - | 0 W/m² | - |
| 1788035106 | 17.78° C | 79% | 1016.9 hPa | 0 mm | - | 0 W/m² | - |
| 1788034279 | 17.78° C | 79% | 1016.9 hPa | 0 mm | - | 0 W/m² | - |
| 1788033906 | 17.78° C | 79% | 1016.8 hPa | 0 mm | - | 0 W/m² | - |
| 1788033306 | 17.78° C | 79% | 1016.7 hPa | 0 mm | - | 0 W/m² | - |
| 1788032479 | 18.33° C | 77% | 1016.7 hPa | 0 mm | - | 0 W/m² | - |
| 1788032106 | 18.33° C | 77% | 1016.5 hPa | 0 mm | - | 0 W/m² | - |
| 1788031506 | 18.33° C | 76% | 1016.3 hPa | 0 mm | - | 0 W/m² | - |
| 1788030679 | 18.33° C | 76% | 1016.1 hPa | 0 mm | - | 0 W/m² | - |
| 1788030306 | 19.44° C | 75% | 1015.9 hPa | 0 mm | - | 0 W/m² | - |
| 1788029706 | 19.44° C | 69% | 1015.6 hPa | 0 mm | - | 0 W/m² | - |
| 1788028879 | 19.44° C | 72% | 1015.4 hPa | 0 mm | - | 0 W/m² | - |
| 1788028506 | 20° C | 71% | 1015.1 hPa | 0 mm | - | 0 W/m² | - |
| 1788027906 | 20° C | 70% | 1015 hPa | 0 mm | - | 0 W/m² | - |
| 1788027079 | 20.56° C | 65% | 1014.9 hPa | 0 mm | - | 7 W/m² | - |
| 1788026706 | 20.56° C | 67% | 1014.7 hPa | 0 mm | - | 20 W/m² | - |
| 1788026106 | 20.56° C | 67% | 1014.7 hPa | 0 mm | - | 27 W/m² | - |
| 1788025279 | 21.11° C | 62% | 1014.5 hPa | 0 mm | - | 47 W/m² | - |
| 1788024906 | 21.11° C | 62% | 1014.5 hPa | 0 mm | - | 40 W/m² | - |
| 1788024306 | 22.22° C | 55% | 1014.3 hPa | 0 mm | - | 40 W/m² | - |
| 1788023479 | 22.22° C | 54% | 1014.3 hPa | 0 mm | - | 60 W/m² | - |
| 1788023105 | 22.22° C | 55% | 1014.5 hPa | 0 mm | - | 60 W/m² | - |
| 1788022506 | 22.22° C | 54% | 1014.4 hPa | 0 mm | - | 60 W/m² | - |
* Rain latest hour (hover to see other rain measurements)
** Current wind speed in m/s (hover to see current wind gust speed)